createdAt,value
2023-07-24T00:02:18.552Z,2.95
2023-07-24T00:04:56.832Z,3.10
2023-07-24T00:07:34.503Z,2.97
2023-07-24T00:10:23.928Z,3.10
2023-07-24T00:13:00.512Z,3.30
2023-07-24T00:15:38.142Z,3.15
2023-07-24T00:18:23.228Z,2.73
2023-07-24T00:21:12.139Z,3.13
2023-07-24T00:23:50.320Z,2.90
2023-07-24T00:26:33.853Z,3.05
2023-07-24T00:29:13.897Z,2.97
2023-07-24T00:31:53.116Z,3.10
2023-07-24T00:34:29.883Z,2.60
2023-07-24T00:39:43.537Z,2.10
2023-07-24T00:42:24.986Z,2.77
2023-07-24T00:45:05.701Z,2.95
2023-07-24T00:47:40.567Z,3.20
2023-07-24T00:50:20.826Z,2.77
2023-07-24T00:53:01.905Z,3.50
2023-07-24T00:55:35.785Z,3.53
2023-07-24T00:58:18.725Z,3.07
2023-07-24T01:00:54.097Z,3.47
2023-07-24T01:03:33.935Z,3.22
2023-07-24T01:06:12.616Z,3.45
2023-07-24T01:08:54.689Z,2.57
2023-07-24T01:11:39.167Z,3.03
2023-07-24T01:14:30.797Z,3.40
2023-07-24T01:17:09.742Z,2.90
2023-07-24T01:19:50.698Z,3.10
2023-07-24T01:22:37.266Z,3.30
2023-07-24T01:25:14.788Z,3.47
2023-07-24T01:27:53.724Z,3.53
2023-07-24T01:30:33.642Z,3.17
2023-07-24T01:33:08.461Z,3.40
2023-07-24T01:35:44.844Z,2.70
2023-07-24T01:38:24.289Z,3.43
2023-07-24T01:40:58.596Z,3.60
2023-07-24T01:46:38.229Z,2.63
2023-07-24T01:49:14.512Z,3.75
2023-07-24T01:51:53.686Z,2.90
2023-07-24T01:54:38.072Z,3.30
2023-07-24T01:57:15.989Z,3.30
2023-07-24T01:59:53.991Z,3.53
2023-07-24T02:02:37.518Z,3.23
2023-07-24T02:07:53.634Z,3.43
2023-07-24T02:13:35.804Z,3.33
2023-07-24T02:36:53.092Z,3.65
2023-07-24T02:39:36.688Z,3.58
2023-07-24T02:42:35.839Z,3.90
2023-07-24T02:48:10.184Z,3.35
2023-07-24T02:51:01.398Z,2.75
2023-07-24T02:53:41.493Z,3.20
2023-07-24T02:56:22.960Z,3.50
2023-07-24T02:59:02.621Z,3.47
2023-07-24T03:01:47.377Z,3.30
2023-07-24T03:04:32.912Z,3.35
2023-07-24T03:07:10.266Z,3.20
2023-07-24T03:10:03.937Z,3.20
2023-07-24T03:12:45.173Z,2.80
2023-07-24T03:15:36.408Z,3.33
2023-07-24T03:18:16.166Z,3.10
2023-07-24T03:29:53.686Z,3.08
2023-07-24T03:32:32.104Z,4.10
2023-07-24T03:35:21.938Z,2.58
2023-07-24T03:37:58.513Z,3.33
2023-07-24T03:40:45.102Z,3.42
2023-07-24T03:43:27.211Z,3.33
2023-07-24T03:46:05.711Z,3.30
2023-07-24T03:51:40.220Z,3.40
2023-07-24T03:54:15.057Z,3.10
2023-07-24T03:56:54.193Z,3.40
2023-07-24T03:59:29.547Z,3.40
2023-07-24T04:02:07.830Z,3.20
2023-07-24T04:04:46.156Z,3.43
2023-07-24T04:07:26.991Z,3.70
2023-07-24T04:10:03.059Z,3.78
2023-07-24T04:12:42.137Z,3.30
2023-07-24T04:15:19.768Z,3.83
2023-07-24T05:30:43.683Z,5.18
2023-07-24T05:33:20.674Z,4.65
2023-07-24T05:36:05.041Z,3.60
2023-07-24T05:41:45.001Z,3.75
2023-07-24T05:44:20.264Z,3.22
2023-07-24T05:46:59.557Z,3.38
2023-07-24T05:55:45.634Z,3.95
2023-07-24T05:58:23.837Z,4.00
2023-07-24T06:00:58.162Z,3.97
2023-07-24T06:06:49.434Z,4.27
2023-07-24T06:09:36.299Z,3.50
2023-07-24T06:15:11.861Z,3.38
2023-07-24T06:17:47.707Z,3.73
2023-07-24T06:20:26.195Z,3.40
2023-07-24T06:23:02.939Z,3.55
2023-07-24T06:25:44.844Z,4.10
2023-07-24T06:28:25.894Z,3.57
2023-07-24T06:31:04.028Z,4.10
2023-07-24T06:36:47.918Z,3.75
2023-07-24T06:39:27.246Z,4.70
2023-07-24T06:42:14.255Z,3.90
2023-07-24T06:45:06.585Z,4.20
2023-07-24T06:50:59.630Z,3.63
2023-07-24T06:53:42.890Z,4.20
2023-07-24T07:05:40.968Z,4.50
2023-07-24T07:08:17.175Z,3.67
2023-07-24T07:14:10.978Z,4.05
2023-07-24T07:16:47.155Z,3.60
2023-07-24T07:19:27.216Z,4.23
2023-07-24T07:22:09.288Z,3.40
2023-07-24T07:24:59.873Z,4.25
2023-07-24T07:27:45.105Z,3.95
2023-07-24T07:30:31.271Z,3.77
2023-07-24T07:33:10.850Z,3.73
2023-07-24T07:35:50.127Z,3.50
2023-07-24T07:38:24.179Z,3.60
2023-07-24T07:41:09.145Z,3.43
2023-07-24T07:43:51.928Z,3.50
2023-07-24T07:46:30.323Z,3.45
2023-07-24T07:49:09.052Z,3.78
2023-07-24T07:51:49.667Z,3.50
2023-07-24T07:54:33.876Z,3.80
2023-07-24T07:57:17.990Z,3.85
2023-07-24T08:00:01.084Z,4.15
2023-07-24T08:02:49.513Z,3.65
2023-07-24T08:05:27.069Z,4.38
2023-07-24T08:08:18.744Z,4.20
2023-07-24T08:11:09.749Z,4.00
2023-07-24T08:13:43.734Z,4.10
2023-07-24T08:16:27.659Z,4.15
2023-07-24T08:19:25.692Z,4.33
2023-07-24T08:22:09.861Z,4.75
2023-07-24T08:24:55.972Z,3.90
2023-07-24T08:27:34.715Z,4.65
2023-07-24T08:30:21.569Z,4.30
2023-07-24T08:33:02.444Z,4.17
2023-07-24T08:35:40.008Z,4.17
2023-07-24T08:38:22.576Z,4.15
2023-07-24T08:41:22.766Z,4.40
2023-07-24T08:44:02.510Z,4.40
2023-07-24T08:46:49.069Z,5.05
2023-07-24T08:49:28.918Z,5.10
2023-07-24T08:52:23.111Z,4.80
2023-07-24T08:55:21.458Z,4.67
2023-07-24T08:58:03.886Z,4.90
2023-07-24T09:00:44.310Z,4.80
2023-07-24T09:03:20.499Z,4.30
2023-07-24T09:06:20.209Z,4.50
2023-07-24T09:09:08.360Z,4.43
2023-07-24T09:11:57.328Z,4.90
2023-07-24T09:14:46.843Z,4.68
2023-07-24T09:17:21.378Z,4.67
2023-07-24T09:23:23.469Z,4.10
2023-07-24T09:26:04.627Z,3.40
2023-07-24T09:28:58.583Z,3.25
2023-07-24T09:31:56.475Z,3.90
2023-07-24T09:37:12.248Z,4.20
2023-07-24T09:40:00.062Z,4.50
2023-07-24T09:42:44.105Z,4.20
2023-07-24T09:45:36.204Z,4.20
2023-07-24T09:51:09.236Z,4.47
2023-07-24T09:53:59.159Z,4.45
2023-07-24T09:56:50.201Z,4.68
2023-07-24T09:59:28.902Z,4.50
2023-07-24T10:02:06.254Z,4.63
2023-07-24T10:04:44.781Z,4.43
2023-07-24T10:07:26.024Z,4.47
2023-07-24T10:10:09.804Z,4.73
2023-07-24T10:12:52.233Z,4.50
2023-07-24T10:15:33.580Z,4.17
2023-07-24T10:18:16.752Z,4.57
2023-07-24T10:20:55.684Z,5.10
2023-07-24T10:23:33.865Z,4.70
2023-07-24T10:26:14.474Z,4.47
2023-07-24T10:28:59.376Z,4.90
2023-07-24T10:31:38.073Z,4.80
2023-07-24T10:34:17.305Z,4.70
2023-07-24T10:36:53.878Z,5.10
2023-07-24T10:39:42.075Z,5.30
2023-07-24T10:42:29.492Z,4.65
2023-07-24T10:45:16.733Z,4.75
2023-07-24T10:47:53.072Z,6.10
2023-07-24T10:53:10.213Z,4.15
2023-07-24T10:55:46.555Z,4.90
2023-07-24T10:58:22.808Z,4.83
2023-07-24T11:01:03.687Z,5.10
2023-07-24T11:03:38.308Z,4.68
2023-07-24T11:06:45.614Z,5.23
2023-07-24T11:09:20.835Z,5.35
2023-07-24T11:12:03.471Z,5.32
2023-07-24T11:14:42.684Z,5.60
2023-07-24T11:17:22.624Z,5.72
2023-07-24T11:19:57.552Z,4.97
2023-07-24T11:22:32.380Z,5.65
2023-07-24T11:25:11.072Z,4.55
2023-07-24T11:27:48.749Z,5.50
2023-07-24T11:30:31.272Z,4.93
2023-07-24T11:33:18.657Z,4.53
2023-07-24T11:35:56.943Z,4.90
2023-07-24T11:38:37.207Z,4.95
2023-07-24T11:41:14.389Z,5.28
2023-07-24T11:43:56.311Z,5.43
2023-07-24T11:46:30.575Z,5.05
2023-07-24T11:49:09.597Z,4.82
2023-07-24T11:51:51.108Z,5.40
2023-07-24T11:54:29.835Z,5.20
2023-07-24T11:57:06.852Z,5.57
2023-07-24T11:59:46.360Z,5.10
2023-07-24T12:02:27.311Z,5.00
2023-07-24T12:05:09.115Z,5.70
2023-07-24T12:07:48.693Z,5.60
2023-07-24T12:10:40.271Z,5.57
2023-07-24T12:13:18.298Z,5.70
2023-07-24T12:15:56.600Z,5.47
2023-07-24T12:18:35.247Z,5.50
2023-07-24T12:21:12.449Z,5.65
2023-07-24T12:23:52.186Z,5.25
2023-07-24T12:26:29.583Z,6.00
2023-07-24T12:29:06.248Z,6.15
2023-07-24T12:31:44.228Z,5.87
2023-07-24T12:34:21.541Z,6.05
2023-07-24T12:37:00.676Z,5.93
2023-07-24T12:39:37.373Z,6.55
2023-07-24T12:42:15.676Z,6.10
2023-07-24T12:44:53.255Z,6.75
2023-07-24T12:47:36.793Z,6.97
2023-07-24T12:50:15.190Z,6.40
2023-07-24T12:52:58.763Z,5.88
2023-07-24T12:55:39.915Z,6.20
2023-07-24T12:58:17.899Z,7.00
2023-07-24T13:00:56.756Z,6.65
2023-07-24T13:03:34.055Z,6.80
2023-07-24T13:06:11.468Z,7.22
2023-07-24T13:08:51.674Z,6.55
2023-07-24T13:11:31.071Z,7.35
2023-07-24T13:14:07.132Z,6.95
2023-07-24T13:16:48.948Z,6.90
2023-07-24T13:19:24.285Z,6.80
2023-07-24T13:22:06.587Z,6.65
2023-07-24T13:24:47.094Z,7.40
2023-07-24T13:30:16.427Z,6.43
2023-07-24T13:32:51.647Z,7.32
2023-07-24T13:38:15.788Z,6.38
2023-07-24T13:43:49.698Z,6.40
2023-07-24T13:46:39.578Z,6.50
2023-07-24T13:49:27.649Z,6.75
2023-07-24T13:52:16.386Z,6.50
2023-07-24T13:55:01.219Z,6.77
2023-07-24T13:57:38.649Z,6.95
2023-07-24T14:00:21.456Z,6.30
2023-07-24T14:02:57.988Z,5.82
2023-07-24T14:05:35.403Z,6.40
2023-07-24T14:08:17.382Z,5.67
2023-07-24T14:11:16.805Z,5.75
2023-07-24T14:16:33.659Z,6.47
2023-07-24T14:19:13.309Z,6.53
2023-07-24T14:21:49.259Z,6.25
2023-07-24T14:24:27.335Z,7.25
2023-07-24T14:27:03.732Z,6.90
2023-07-24T14:29:40.014Z,6.78
2023-07-24T14:32:20.658Z,6.33
2023-07-24T14:34:56.412Z,6.28
2023-07-24T14:37:47.820Z,7.43
2023-07-24T14:40:23.482Z,6.60
2023-07-24T14:43:02.011Z,6.97
2023-07-24T14:45:43.936Z,6.77
2023-07-24T14:48:20.246Z,6.33
2023-07-24T14:51:01.818Z,7.30
2023-07-24T14:53:38.778Z,5.90
2023-07-24T14:56:14.333Z,6.38
2023-07-24T14:58:50.926Z,7.00
2023-07-24T15:01:30.864Z,6.30
2023-07-24T15:04:08.842Z,6.53
2023-07-24T15:06:48.993Z,5.82
2023-07-24T15:09:25.385Z,6.60
2023-07-24T15:12:01.729Z,6.47
2023-07-24T15:14:45.697Z,6.70
2023-07-24T15:17:28.829Z,6.77
2023-07-24T15:20:07.744Z,6.65
2023-07-24T15:22:46.751Z,6.65
2023-07-24T15:25:21.598Z,6.90
2023-07-24T15:27:55.663Z,7.35
2023-07-24T15:30:34.798Z,6.70
2023-07-24T15:33:17.362Z,6.65
2023-07-24T15:35:54.040Z,6.65
2023-07-24T15:38:31.007Z,6.60
2023-07-24T15:41:16.291Z,6.95
2023-07-24T15:43:54.052Z,6.35
2023-07-24T15:46:33.517Z,6.47
2023-07-24T15:49:12.084Z,6.30
2023-07-24T15:51:54.032Z,7.00
2023-07-24T15:54:30.544Z,7.00
2023-07-24T15:57:05.964Z,7.30
2023-07-24T15:59:43.289Z,6.70
2023-07-24T16:02:20.194Z,7.40
2023-07-24T16:05:01.971Z,6.32
2023-07-24T16:07:37.072Z,6.65
2023-07-24T16:10:12.481Z,6.40
2023-07-24T16:12:52.236Z,7.00
2023-07-24T16:18:06.977Z,6.90
2023-07-24T16:20:47.481Z,6.88
2023-07-24T16:23:24.417Z,7.00
2023-07-24T16:26:02.008Z,6.85
2023-07-24T16:28:37.565Z,6.22
2023-07-24T16:31:16.571Z,6.53
2023-07-24T16:33:54.148Z,7.53
2023-07-24T16:36:32.103Z,6.60
2023-07-24T16:39:10.145Z,6.88
2023-07-24T16:41:46.901Z,6.78
2023-07-24T16:44:33.167Z,5.93
2023-07-24T16:47:12.644Z,7.00
2023-07-24T16:49:48.091Z,6.50
2023-07-24T16:52:27.421Z,7.43
2023-07-24T16:55:04.362Z,6.70
2023-07-24T16:57:44.313Z,7.25
2023-07-24T17:00:26.182Z,6.75
2023-07-24T17:03:03.413Z,6.55
2023-07-24T17:05:40.880Z,6.60
2023-07-24T17:08:18.670Z,7.15
2023-07-24T17:10:54.897Z,6.95
2023-07-24T17:13:35.671Z,7.22
2023-07-24T17:16:05.471Z,7.22
2023-07-24T17:18:42.073Z,7.55
2023-07-24T17:21:19.431Z,7.53
2023-07-24T17:24:06.535Z,7.65
2023-07-24T17:26:41.660Z,7.45
2023-07-24T17:29:20.631Z,7.13
2023-07-24T17:32:02.466Z,6.70
2023-07-24T17:34:40.332Z,7.20
2023-07-24T17:37:32.638Z,7.27
2023-07-24T17:40:25.422Z,7.63
2023-07-24T17:42:57.901Z,7.10
2023-07-24T17:45:33.587Z,7.13
2023-07-24T17:48:08.836Z,6.43
2023-07-24T17:50:43.276Z,6.78
2023-07-24T17:53:19.251Z,7.35
2023-07-24T17:56:02.130Z,6.82
2023-07-24T17:58:41.245Z,7.10
2023-07-24T18:01:22.299Z,7.65
2023-07-24T18:03:58.712Z,6.82
2023-07-24T18:06:40.005Z,7.10
2023-07-24T18:09:21.078Z,7.30
2023-07-24T18:12:01.152Z,7.10
2023-07-24T18:14:35.737Z,7.20
2023-07-24T18:17:11.016Z,6.87
2023-07-24T18:19:47.967Z,7.15
2023-07-24T18:22:25.984Z,7.80
2023-07-24T18:25:17.370Z,8.27
2023-07-24T18:27:57.536Z,7.65
2023-07-24T18:30:35.652Z,8.25
2023-07-24T18:33:14.365Z,7.60
2023-07-24T18:35:48.285Z,8.15
2023-07-24T18:38:25.126Z,7.20
2023-07-24T18:40:59.273Z,7.20
2023-07-24T18:43:39.171Z,7.10
2023-07-24T18:46:17.426Z,6.85
2023-07-24T18:48:57.275Z,6.90
2023-07-24T18:51:36.237Z,7.55
2023-07-24T18:54:15.234Z,7.93
2023-07-24T18:56:50.781Z,6.60
2023-07-24T18:59:30.247Z,7.35
2023-07-24T19:02:09.793Z,7.32
2023-07-24T19:04:47.304Z,8.23
2023-07-24T19:07:28.863Z,7.50
2023-07-24T19:10:10.734Z,7.87
2023-07-24T19:12:48.852Z,7.78
2023-07-24T19:15:28.506Z,6.93
2023-07-24T19:18:06.354Z,7.80
2023-07-24T19:20:54.098Z,7.65
2023-07-24T19:23:33.681Z,7.35
2023-07-24T19:26:10.462Z,6.38
2023-07-24T19:28:48.726Z,6.38
2023-07-24T19:31:30.079Z,6.70
2023-07-24T19:34:07.774Z,6.85
2023-07-24T19:36:46.495Z,6.50
2023-07-24T19:39:26.288Z,7.65
2023-07-24T19:42:02.606Z,7.40
2023-07-24T19:44:43.864Z,6.60
2023-07-24T19:47:25.598Z,6.53
2023-07-24T19:50:07.264Z,6.20
2023-07-24T19:52:50.701Z,6.15
2023-07-24T19:55:25.644Z,7.20
2023-07-24T19:58:03.342Z,6.20
2023-07-24T20:00:42.207Z,6.03
2023-07-24T20:03:24.997Z,6.30
2023-07-24T20:06:08.276Z,6.20
2023-07-24T20:08:46.130Z,6.40
2023-07-24T20:11:25.694Z,5.90
2023-07-24T20:14:09.285Z,5.90
2023-07-24T20:16:49.094Z,6.35
2023-07-24T20:19:45.926Z,6.07
2023-07-24T20:22:21.624Z,5.80
2023-07-24T20:24:58.017Z,6.37
2023-07-24T20:27:33.537Z,5.95
2023-07-24T20:32:51.621Z,5.50
2023-07-24T20:35:28.721Z,5.57
2023-07-24T20:38:10.947Z,5.10
2023-07-24T20:40:46.484Z,5.38
2023-07-24T20:46:02.985Z,5.47
2023-07-24T20:48:37.645Z,5.00
2023-07-24T20:51:26.950Z,4.70
2023-07-24T20:54:07.034Z,5.38
2023-07-24T20:56:41.617Z,5.15
2023-07-24T20:59:23.060Z,5.05
2023-07-24T21:02:04.098Z,4.90
2023-07-24T21:04:46.538Z,4.78
2023-07-24T21:07:26.366Z,4.80
2023-07-24T21:10:07.499Z,5.35
2023-07-24T21:12:46.892Z,4.70
2023-07-24T21:15:26.661Z,4.70
2023-07-24T21:18:00.144Z,4.47
2023-07-24T21:20:36.842Z,4.50
2023-07-24T21:23:11.036Z,5.63
2023-07-24T21:25:56.161Z,4.47
2023-07-24T21:28:32.827Z,4.40
2023-07-24T21:31:17.990Z,4.50
2023-07-24T21:33:53.854Z,4.65
2023-07-24T21:36:33.162Z,4.65
2023-07-24T21:39:09.461Z,5.18
2023-07-24T21:41:46.201Z,4.50
2023-07-24T21:44:18.561Z,5.25
2023-07-24T21:46:55.111Z,4.78
2023-07-24T21:49:31.477Z,4.87
2023-07-24T21:52:11.373Z,5.03
2023-07-24T21:54:47.978Z,4.97
2023-07-24T21:57:27.818Z,5.20
2023-07-24T22:00:06.389Z,4.55
2023-07-24T22:02:48.047Z,5.40
2023-07-24T22:05:23.856Z,4.70
2023-07-24T22:07:57.677Z,5.40
2023-07-24T22:10:36.095Z,4.53
2023-07-24T22:13:14.352Z,5.30
2023-07-24T22:15:52.085Z,4.28
2023-07-24T22:18:27.990Z,4.50
2023-07-24T22:21:07.866Z,4.60
2023-07-24T22:23:44.235Z,4.80
2023-07-24T22:26:18.083Z,4.10
2023-07-24T22:28:54.540Z,4.85
2023-07-24T22:31:30.894Z,4.50
2023-07-24T22:34:05.168Z,4.90
2023-07-24T22:36:42.246Z,4.80
2023-07-24T22:39:20.443Z,5.05
2023-07-24T22:41:55.870Z,4.63
2023-07-24T22:44:36.986Z,4.70
2023-07-24T22:47:13.500Z,4.80
2023-07-24T22:49:53.112Z,4.40
2023-07-24T22:52:31.591Z,4.70
2023-07-24T22:55:06.196Z,4.47
2023-07-24T22:57:44.641Z,5.07
2023-07-24T23:00:24.825Z,4.40
2023-07-24T23:03:07.773Z,4.70
2023-07-24T23:05:43.756Z,5.40
2023-07-24T23:08:20.056Z,5.10
2023-07-24T23:10:54.366Z,4.70
2023-07-24T23:13:31.138Z,5.10
2023-07-24T23:16:11.143Z,4.60
2023-07-24T23:18:48.162Z,4.38
2023-07-24T23:21:22.595Z,5.20
2023-07-24T23:23:59.708Z,5.50
2023-07-24T23:26:34.577Z,5.45
2023-07-24T23:29:19.810Z,5.10
2023-07-24T23:31:57.966Z,5.32
2023-07-24T23:34:32.738Z,4.75
2023-07-24T23:37:11.590Z,5.93
2023-07-24T23:39:47.865Z,4.75
2023-07-24T23:42:24.365Z,4.90
2023-07-24T23:45:01.902Z,5.15
2023-07-24T23:47:40.759Z,5.30
2023-07-24T23:50:17.656Z,5.35
2023-07-24T23:52:53.944Z,5.57
2023-07-24T23:55:34.747Z,5.13
2023-07-24T23:58:09.993Z,4.75
